createdAt,value
2019-01-20T00:00:24.170Z,4.77
2019-01-20T00:04:40.972Z,6.67
2019-01-20T00:09:01.798Z,5.40
2019-01-20T00:13:18.657Z,3.67
2019-01-20T00:17:35.254Z,4.77
2019-01-20T00:21:51.945Z,5.60
2019-01-20T00:26:08.513Z,6.83
2019-01-20T00:30:25.042Z,6.13
2019-01-20T00:34:41.518Z,5.40
2019-01-20T00:38:58.007Z,4.53
2019-01-20T00:43:14.530Z,4.13
2019-01-20T00:47:33.334Z,3.30
2019-01-20T00:51:50.287Z,3.00
2019-01-20T00:56:06.798Z,3.50
2019-01-20T01:00:26.132Z,4.03
2019-01-20T01:04:44.997Z,3.80
2019-01-20T01:09:01.553Z,3.23
2019-01-20T01:13:18.321Z,3.13
2019-01-20T01:17:35.141Z,3.60
2019-01-20T01:21:51.756Z,3.40
2019-01-20T01:26:08.440Z,2.90
2019-01-20T01:30:24.999Z,3.07
2019-01-20T01:34:41.609Z,4.20
2019-01-20T01:38:58.244Z,3.87
2019-01-20T01:43:17.812Z,4.03
2019-01-20T01:47:34.456Z,4.53
2019-01-20T01:51:52.906Z,4.50
2019-01-20T01:56:09.544Z,4.70
2019-01-20T02:00:26.328Z,3.53
2019-01-20T02:04:56.076Z,3.87
2019-01-20T02:09:20.361Z,3.97
2019-01-20T04:37:36.885Z,2.90
2019-01-20T04:42:16.823Z,3.50
2019-01-20T04:46:46.047Z,3.43
2019-01-20T04:51:36.969Z,3.77
2019-01-20T04:55:58.139Z,7.07
2019-01-20T05:00:17.211Z,5.33
2019-01-20T05:04:41.976Z,4.57
2019-01-20T05:09:03.971Z,3.47
2019-01-20T05:13:23.918Z,3.33
2019-01-20T05:17:51.645Z,3.10
2019-01-20T05:22:22.257Z,4.37
2019-01-20T05:26:43.296Z,4.33
2019-01-20T05:31:02.010Z,6.10
2019-01-20T05:35:19.713Z,4.73
2019-01-20T05:39:39.437Z,6.00
2019-01-20T05:43:55.944Z,6.00
2019-01-20T05:48:12.664Z,3.80
2019-01-20T05:52:31.129Z,4.43
2019-01-20T05:56:47.615Z,3.20
2019-01-20T06:01:04.438Z,4.27
2019-01-20T06:05:20.879Z,5.23
2019-01-20T06:09:37.314Z,3.53
2019-01-20T06:13:53.765Z,3.50
2019-01-20T06:18:10.243Z,3.57
2019-01-20T06:22:26.916Z,3.00
2019-01-20T06:26:43.371Z,2.83
2019-01-20T06:30:59.767Z,2.47
2019-01-20T06:35:16.479Z,3.23
2019-01-20T06:39:33.246Z,4.23
2019-01-20T06:43:49.683Z,4.53
2019-01-20T06:48:06.416Z,4.60
2019-01-20T06:52:23.104Z,4.43
2019-01-20T06:56:39.531Z,3.80
2019-01-20T07:00:56.244Z,5.13
2019-01-20T07:05:12.788Z,4.70
2019-01-20T07:09:29.324Z,4.37
2019-01-20T07:13:45.769Z,4.10
2019-01-20T07:18:02.177Z,4.80
2019-01-20T07:22:24.410Z,5.87
2019-01-20T07:26:40.857Z,4.40
2019-01-20T07:30:57.287Z,7.07
2019-01-20T07:35:14.060Z,6.80
2019-01-20T07:39:30.516Z,9.00
2019-01-20T07:43:47.201Z,6.77
2019-01-20T07:48:03.644Z,5.00
2019-01-20T07:52:20.032Z,4.93
2019-01-20T07:56:36.474Z,6.70
2019-01-20T08:00:52.886Z,6.73
2019-01-20T08:05:10.231Z,6.70
2019-01-20T08:09:26.686Z,8.70
2019-01-20T08:13:43.105Z,18.23
2019-01-20T08:17:59.542Z,12.00
2019-01-20T08:22:16.261Z,6.93
2019-01-20T08:26:32.836Z,7.27
2019-01-20T08:30:49.359Z,6.60
2019-01-20T08:35:07.346Z,6.13
2019-01-20T08:39:23.781Z,5.83
2019-01-20T08:43:40.223Z,4.60
2019-01-20T08:48:00.406Z,8.67
2019-01-20T08:52:16.847Z,4.93
2019-01-20T08:56:33.276Z,6.70
2019-01-20T09:00:49.694Z,5.57
2019-01-20T09:05:06.150Z,8.10
2019-01-20T09:09:22.598Z,6.53
2019-01-20T09:13:40.163Z,6.33
2019-01-20T09:17:57.134Z,8.63
2019-01-20T09:22:13.599Z,10.00
2019-01-20T09:26:30.051Z,11.47
2019-01-20T09:30:46.720Z,8.87
2019-01-20T09:35:03.823Z,6.13
2019-01-20T09:39:20.267Z,6.30
2019-01-20T09:43:36.722Z,7.23
2019-01-20T09:47:53.139Z,6.83
2019-01-20T09:52:09.681Z,6.87
2019-01-20T09:56:26.170Z,7.03
2019-01-20T10:00:42.671Z,7.50
2019-01-20T10:04:59.236Z,6.90
2019-01-20T10:09:16.986Z,8.10
2019-01-20T10:13:33.453Z,13.13
2019-01-20T10:17:49.965Z,8.90
2019-01-20T10:22:06.510Z,6.50
2019-01-20T10:26:22.987Z,11.97
2019-01-20T10:30:39.812Z,11.30
2019-01-20T10:34:57.187Z,8.33
2019-01-20T10:39:13.778Z,7.37
2019-01-20T10:43:30.291Z,7.37
2019-01-20T10:47:46.793Z,9.17
2019-01-20T10:52:03.195Z,8.13
2019-01-20T10:56:19.894Z,11.43
2019-01-20T11:00:38.934Z,8.73
2019-01-20T11:04:57.535Z,8.77
2019-01-20T11:09:13.844Z,11.27
2019-01-20T11:13:30.423Z,11.50
2019-01-20T11:17:47.239Z,8.67
2019-01-20T11:22:03.667Z,11.83
2019-01-20T11:26:20.207Z,10.07
2019-01-20T11:30:36.605Z,7.83
2019-01-20T11:35:10.971Z,7.77
2019-01-20T11:39:28.426Z,8.90
2019-01-20T11:44:00.586Z,11.03
2019-01-20T11:48:17.885Z,13.50
2019-01-20T11:52:34.296Z,11.90
2019-01-20T11:56:50.729Z,13.57
2019-01-20T12:01:07.175Z,12.47
2019-01-20T12:05:23.615Z,7.97
2019-01-20T12:09:40.015Z,8.43
2019-01-20T12:13:56.450Z,11.50
2019-01-20T12:18:12.887Z,11.17
2019-01-20T12:22:29.595Z,13.37
2019-01-20T12:26:46.034Z,11.50
2019-01-20T12:31:02.635Z,16.30
2019-01-20T12:35:19.058Z,16.37
2019-01-20T12:39:35.839Z,13.93
2019-01-20T12:43:52.284Z,11.07
2019-01-20T12:48:08.710Z,12.87
2019-01-20T12:52:25.126Z,11.40
2019-01-20T12:56:41.850Z,16.27
2019-01-20T13:00:59.606Z,14.67
2019-01-20T13:05:16.106Z,16.00
2019-01-20T13:09:32.691Z,12.00
2019-01-20T13:13:49.155Z,13.87
2019-01-20T13:18:06.652Z,11.87
2019-01-20T13:22:23.123Z,15.90
2019-01-20T13:26:39.843Z,13.87
2019-01-20T13:30:56.297Z,15.23
2019-01-20T13:35:13.638Z,15.90
2019-01-20T13:39:30.317Z,16.20
2019-01-20T13:43:47.300Z,13.57
2019-01-20T13:48:03.854Z,16.23
2019-01-20T13:52:21.524Z,14.03
2019-01-20T13:56:38.006Z,8.57
2019-01-20T14:00:56.392Z,11.27
2019-01-20T14:05:12.827Z,11.87
2019-01-20T14:09:29.280Z,19.17
2019-01-20T14:13:45.701Z,12.70
2019-01-20T14:18:02.509Z,14.53
2019-01-20T14:22:19.236Z,9.20
2019-01-20T14:26:42.119Z,9.53
2019-01-20T14:30:58.964Z,16.67
2019-01-20T14:35:15.416Z,9.70
2019-01-20T14:39:31.905Z,9.27
2019-01-20T14:43:48.549Z,6.53
2019-01-20T14:48:05.222Z,11.17
2019-01-20T14:52:21.896Z,8.90
2019-01-20T14:56:38.558Z,9.17
2019-01-20T15:00:55.888Z,7.57
2019-01-20T15:05:12.947Z,9.73
2019-01-20T15:09:29.566Z,8.63
2019-01-20T15:13:47.928Z,8.57
2019-01-20T15:18:04.776Z,7.17
2019-01-20T15:22:22.815Z,4.90
2019-01-20T15:26:39.294Z,5.67
2019-01-20T15:30:55.747Z,6.03
2019-01-20T15:35:12.461Z,9.13
2019-01-20T15:39:28.912Z,7.17
2019-01-20T15:43:45.368Z,8.80
2019-01-20T15:48:01.867Z,6.73
2019-01-20T15:52:18.562Z,7.10
2019-01-20T15:56:36.654Z,7.93
2019-01-20T16:00:53.879Z,7.53
2019-01-20T16:05:10.896Z,6.17
2019-01-20T16:09:27.352Z,6.07
2019-01-20T16:13:43.878Z,5.83
2019-01-20T16:18:00.344Z,4.73
2019-01-20T16:22:16.809Z,4.67
2019-01-20T16:26:33.674Z,3.63
2019-01-20T16:30:50.240Z,3.77
2019-01-20T16:35:09.983Z,3.00
2019-01-20T16:39:26.681Z,3.50
2019-01-20T16:43:43.831Z,2.80
2019-01-20T16:48:00.455Z,3.43
2019-01-20T16:52:19.068Z,3.00
2019-01-20T16:56:35.833Z,3.53
2019-01-20T17:00:52.610Z,2.77
2019-01-20T17:05:12.546Z,3.63
2019-01-20T17:09:29.352Z,3.77
2019-01-20T17:13:47.208Z,3.60
2019-01-20T17:18:05.461Z,4.97
2019-01-20T17:22:23.479Z,6.33
2019-01-20T17:26:40.013Z,7.63
2019-01-20T17:30:58.110Z,3.53
2019-01-20T17:35:14.943Z,4.23
2019-01-20T17:39:32.628Z,4.50
2019-01-20T17:43:51.298Z,4.73
2019-01-20T17:48:07.778Z,4.87
2019-01-20T17:52:25.856Z,5.47
2019-01-20T17:56:42.322Z,4.03
2019-01-20T18:01:01.089Z,5.23
2019-01-20T18:05:21.079Z,4.90
2019-01-20T18:09:37.713Z,6.23
2019-01-20T18:13:54.259Z,5.47
2019-01-20T18:18:11.014Z,5.00
2019-01-20T18:22:27.587Z,6.30
2019-01-20T18:26:44.127Z,5.00
2019-01-20T18:31:00.951Z,4.67
2019-01-20T18:35:17.435Z,4.40
2019-01-20T18:39:33.925Z,4.27
2019-01-20T18:43:50.735Z,6.10
2019-01-20T18:48:07.591Z,4.97
2019-01-20T18:52:25.647Z,4.80
2019-01-20T18:56:42.431Z,5.40
2019-01-20T19:01:01.076Z,6.03
2019-01-20T19:05:17.619Z,8.07
2019-01-20T19:09:36.389Z,5.27
2019-01-20T19:13:58.389Z,4.37
2019-01-20T19:18:19.143Z,4.50
2019-01-20T19:22:33.824Z,5.70
2019-01-20T19:26:50.657Z,5.80
2019-01-20T19:31:09.591Z,5.50
2019-01-20T19:35:26.119Z,5.70
2019-01-20T19:39:42.580Z,7.37
2019-01-20T19:44:01.459Z,5.47
2019-01-20T19:48:20.251Z,5.60
2019-01-20T19:52:36.808Z,5.17
2019-01-20T19:56:58.165Z,4.50
2019-01-20T20:01:14.789Z,7.10
2019-01-20T20:50:22.095Z,6.87
2019-01-20T20:55:15.508Z,6.00
2019-01-20T20:59:07.311Z,7.60
2019-01-20T21:03:26.949Z,5.70
2019-01-20T21:07:50.760Z,5.00
2019-01-20T21:12:12.011Z,5.97
2019-01-20T21:16:37.831Z,6.10
2019-01-20T21:20:57.789Z,8.17
2019-01-20T21:25:35.176Z,5.83
